Time;durP1;ratioP1;P1;durP2;ratioP2;P2;SDS_P1;SDS_P2;PMS_P1;PMS_P2;Temp;Humidity;BMP_temperature;BMP_pressure;BME280_temperature;BME280_humidity;BME280_pressure;Samples;Min_cycle;Max_cycle;Signal;HPM_P1;HPM_P2
2019/05/20 00:00:08;;;;;;;11.75;10;;;;;;;12.32;98.51855;93870.22;;;;
2019/05/20 00:01:10;;;;;;;11.35;10.15;;;;;;;12.3;99.05762;93876.08;;;;
2019/05/20 00:02:11;;;;;;;11.35;10.15;;;;;;;12.3;99.05762;93876.08;;;;
2019/05/20 00:03:12;;;;;;;11.35;10.15;;;;;;;12.3;99.05762;93876.08;;;;
2019/05/20 00:04:13;;;;;;;11.35;10.15;;;;;;;12.3;99.05762;93876.08;;;;
2019/05/20 00:05:14;;;;;;;11.35;10.15;;;;;;;12.3;99.05762;93876.08;;;;
2019/05/20 00:06:15;;;;;;;11.35;10.15;;;;;;;12.3;99.05762;93876.08;;;;
2019/05/20 00:07:16;;;;;;;11.35;10.15;;;;;;;12.3;99.05762;93876.08;;;;
2019/05/20 00:08:17;;;;;;;11.35;10.15;;;;;;;12.3;99.05762;93876.08;;;;
2019/05/20 00:09:18;;;;;;;11.35;10.15;;;;;;;12.3;99.05762;93876.08;;;;
2019/05/20 00:10:19;;;;;;;11.35;10.15;;;;;;;12.3;99.05762;93876.08;;;;
2019/05/20 00:11:21;;;;;;;10.65;9.550001;;;;;;;12.23;99.55273;93866.12;;;;
2019/05/20 00:12:22;;;;;;;10.65;9.550001;;;;;;;12.23;99.55273;93866.12;;;;
2019/05/20 00:13:23;;;;;;;10.65;9.550001;;;;;;;12.23;99.55273;93866.12;;;;
2019/05/20 00:14:24;;;;;;;10.65;9.550001;;;;;;;12.23;99.55273;93866.12;;;;
2019/05/20 00:15:25;;;;;;;10.65;9.550001;;;;;;;12.23;99.55273;93866.12;;;;
2019/05/20 00:16:26;;;;;;;10.65;9.550001;;;;;;;12.23;99.55273;93866.12;;;;
2019/05/20 00:17:27;;;;;;;10.65;9.550001;;;;;;;12.23;99.55273;93866.12;;;;
2019/05/20 00:18:28;;;;;;;10.65;9.550001;;;;;;;12.23;99.55273;93866.12;;;;
2019/05/20 00:19:29;;;;;;;10.65;9.550001;;;;;;;12.23;99.55273;93866.12;;;;
2019/05/20 00:20:31;;;;;;;10.65;9.550001;;;;;;;12.23;99.55273;93866.12;;;;
2019/05/20 00:21:32;;;;;;;10.6;9.400001;;;;;;;12.22;99.95313;93867.72;;;;
2019/05/20 00:22:33;;;;;;;10.6;9.400001;;;;;;;12.22;99.95313;93867.72;;;;
2019/05/20 00:23:34;;;;;;;10.6;9.400001;;;;;;;12.22;99.95313;93867.72;;;;
2019/05/20 00:24:35;;;;;;;10.6;9.400001;;;;;;;12.22;99.95313;93867.72;;;;
2019/05/20 00:25:36;;;;;;;10.6;9.400001;;;;;;;12.22;99.95313;93867.72;;;;
2019/05/20 00:26:37;;;;;;;10.6;9.400001;;;;;;;12.22;99.95313;93867.72;;;;
2019/05/20 00:27:38;;;;;;;10.6;9.400001;;;;;;;12.22;99.95313;93867.72;;;;
2019/05/20 00:28:39;;;;;;;10.6;9.400001;;;;;;;12.22;99.95313;93867.72;;;;
2019/05/20 00:29:40;;;;;;;10.6;9.400001;;;;;;;12.22;99.95313;93867.72;;;;
2019/05/20 00:30:41;;;;;;;10.6;9.400001;;;;;;;12.22;99.95313;93867.72;;;;
2019/05/20 00:31:42;;;;;;;10.6;9.400001;;;;;;;12.22;99.95313;93867.72;;;;
2019/05/20 00:32:43;;;;;;;10.7;9.6;;;;;;;12.18;100;93860.71;;;;
2019/05/20 00:33:44;;;;;;;10.7;9.6;;;;;;;12.18;100;93860.71;;;;
2019/05/20 00:34:45;;;;;;;10.7;9.6;;;;;;;12.18;100;93860.71;;;;
2019/05/20 00:35:46;;;;;;;10.7;9.6;;;;;;;12.18;100;93860.71;;;;
2019/05/20 00:36:48;;;;;;;10.7;9.6;;;;;;;12.18;100;93860.71;;;;
2019/05/20 00:37:49;;;;;;;10.7;9.6;;;;;;;12.18;100;93860.71;;;;
2019/05/20 00:39:21;;;;;;;10.7;9.6;;;;;;;12.18;100;93860.71;;;;
2019/05/20 00:40:22;;;;;;;10.7;9.6;;;;;;;12.18;100;93860.71;;;;
2019/05/20 00:41:23;;;;;;;10.7;9.6;;;;;;;12.18;100;93860.71;;;;
2019/05/20 00:42:24;;;;;;;10.7;9.6;;;;;;;12.18;100;93860.71;;;;
2019/05/20 00:43:25;;;;;;;9.9;8.950001;;;;;;;12.2;100;93835.53;;;;
2019/05/20 00:44:26;;;;;;;9.9;8.950001;;;;;;;12.2;100;93835.53;;;;
2019/05/20 00:45:27;;;;;;;9.9;8.950001;;;;;;;12.2;100;93835.53;;;;
2019/05/20 00:46:28;;;;;;;9.9;8.950001;;;;;;;12.2;100;93835.53;;;;
2019/05/20 00:47:29;;;;;;;9.9;8.950001;;;;;;;12.2;100;93835.53;;;;
2019/05/20 00:48:30;;;;;;;9.9;8.950001;;;;;;;12.2;100;93835.53;;;;
2019/05/20 00:49:32;;;;;;;9.9;8.950001;;;;;;;12.2;100;93835.53;;;;
2019/05/20 00:50:33;;;;;;;9.9;8.950001;;;;;;;12.2;100;93835.53;;;;
2019/05/20 00:51:34;;;;;;;9.9;8.950001;;;;;;;12.2;100;93835.53;;;;
2019/05/20 00:52:35;;;;;;;9.9;8.950001;;;;;;;12.2;100;93835.53;;;;
2019/05/20 00:53:36;;;;;;;11.2;9.85;;;;;;;12.15;100;93836.11;;;;
2019/05/20 00:54:37;;;;;;;11.2;9.85;;;;;;;12.15;100;93836.11;;;;
2019/05/20 00:55:38;;;;;;;11.2;9.85;;;;;;;12.15;100;93836.11;;;;
2019/05/20 00:56:39;;;;;;;11.2;9.85;;;;;;;12.15;100;93836.11;;;;
2019/05/20 00:57:40;;;;;;;11.2;9.85;;;;;;;12.15;100;93836.11;;;;
2019/05/20 00:58:41;;;;;;;11.2;9.85;;;;;;;12.15;100;93836.11;;;;
2019/05/20 00:59:42;;;;;;;11.2;9.85;;;;;;;12.15;100;93836.11;;;;
2019/05/20 01:00:43;;;;;;;11.2;9.85;;;;;;;12.15;100;93836.11;;;;
2019/05/20 01:01:44;;;;;;;11.2;9.85;;;;;;;12.15;100;93836.11;;;;
2019/05/20 01:02:45;;;;;;;11.2;9.85;;;;;;;12.15;100;93836.11;;;;
2019/05/20 01:03:47;;;;;;;11.25;10.05;;;;;;;12.15;100;93828;;;;
2019/05/20 01:04:48;;;;;;;11.25;10.05;;;;;;;12.15;100;93828;;;;
2019/05/20 01:05:49;;;;;;;11.25;10.05;;;;;;;12.15;100;93828;;;;
2019/05/20 01:06:50;;;;;;;11.25;10.05;;;;;;;12.15;100;93828;;;;
2019/05/20 01:07:51;;;;;;;11.25;10.05;;;;;;;12.15;100;93828;;;;
2019/05/20 01:08:52;;;;;;;11.25;10.05;;;;;;;12.15;100;93828;;;;
2019/05/20 01:09:53;;;;;;;11.25;10.05;;;;;;;12.15;100;93828;;;;
2019/05/20 01:10:54;;;;;;;11.25;10.05;;;;;;;12.15;100;93828;;;;
2019/05/20 01:11:55;;;;;;;11.25;10.05;;;;;;;12.15;100;93828;;;;
2019/05/20 01:12:57;;;;;;;11.25;10.05;;;;;;;12.15;100;93828;;;;
2019/05/20 01:13:58;;;;;;;11.25;10.05;;;;;;;12.15;100;93828;;;;
2019/05/20 01:14:59;;;;;;;10.95;9.6;;;;;;;12.12;100;93830.33;;;;
2019/05/20 01:16:00;;;;;;;10.95;9.6;;;;;;;12.12;100;93830.33;;;;
2019/05/20 01:17:01;;;;;;;10.95;9.6;;;;;;;12.12;100;93830.33;;;;
2019/05/20 01:18:02;;;;;;;10.95;9.6;;;;;;;12.12;100;93830.33;;;;
2019/05/20 01:19:03;;;;;;;10.95;9.6;;;;;;;12.12;100;93830.33;;;;
2019/05/20 01:20:04;;;;;;;10.95;9.6;;;;;;;12.12;100;93830.33;;;;
2019/05/20 01:21:06;;;;;;;10.95;9.6;;;;;;;12.12;100;93830.33;;;;
2019/05/20 01:22:07;;;;;;;10.95;9.6;;;;;;;12.12;100;93830.33;;;;
2019/05/20 01:23:08;;;;;;;10.95;9.6;;;;;;;12.12;100;93830.33;;;;
2019/05/20 01:24:09;;;;;;;10.95;9.6;;;;;;;12.12;100;93830.33;;;;
2019/05/20 01:25:10;;;;;;;11.6;10.4;;;;;;;12.12;100;93820.33;;;;
2019/05/20 01:26:11;;;;;;;11.6;10.4;;;;;;;12.12;100;93820.33;;;;
2019/05/20 01:27:12;;;;;;;11.6;10.4;;;;;;;12.12;100;93820.33;;;;
2019/05/20 01:28:14;;;;;;;11.6;10.4;;;;;;;12.12;100;93820.33;;;;
2019/05/20 01:29:15;;;;;;;11.6;10.4;;;;;;;12.12;100;93820.33;;;;
2019/05/20 01:30:16;;;;;;;11.6;10.4;;;;;;;12.12;100;93820.33;;;;
2019/05/20 01:31:17;;;;;;;11.6;10.4;;;;;;;12.12;100;93820.33;;;;
2019/05/20 01:32:18;;;;;;;11.6;10.4;;;;;;;12.12;100;93820.33;;;;
2019/05/20 01:33:19;;;;;;;11.6;10.4;;;;;;;12.12;100;93820.33;;;;
2019/05/20 01:34:20;;;;;;;11.6;10.4;;;;;;;12.12;100;93820.33;;;;
2019/05/20 01:35:22;;;;;;;11.6;10.4;;;;;;;12.12;100;93820.33;;;;
2019/05/20 01:36:23;;;;;;;11.05;9.550001;;;;;;;12.05;100;93813.45;;;;
2019/05/20 01:37:24;;;;;;;11.05;9.550001;;;;;;;12.05;100;93813.45;;;;
2019/05/20 01:38:25;;;;;;;11.05;9.550001;;;;;;;12.05;100;93813.45;;;;
2019/05/20 01:39:26;;;;;;;11.05;9.550001;;;;;;;12.05;100;93813.45;;;;
2019/05/20 01:40:27;;;;;;;11.05;9.550001;;;;;;;12.05;100;93813.45;;;;
2019/05/20 01:41:28;;;;;;;11.05;9.550001;;;;;;;12.05;100;93813.45;;;;
2019/05/20 01:42:29;;;;;;;11.05;9.550001;;;;;;;12.05;100;93813.45;;;;
2019/05/20 01:43:30;;;;;;;11.05;9.550001;;;;;;;12.05;100;93813.45;;;;
2019/05/20 01:44:31;;;;;;;11.05;9.550001;;;;;;;12.05;100;93813.45;;;;
2019/05/20 01:45:32;;;;;;;11.05;9.550001;;;;;;;12.05;100;93813.45;;;;
2019/05/20 01:46:34;;;;;;;11.95;10.6;;;;;;;12.06;100;93819.26;;;;
2019/05/20 01:47:35;;;;;;;11.95;10.6;;;;;;;12.06;100;93819.26;;;;
2019/05/20 01:48:36;;;;;;;11.95;10.6;;;;;;;12.06;100;93819.26;;;;
2019/05/20 01:49:37;;;;;;;11.95;10.6;;;;;;;12.06;100;93819.26;;;;
2019/05/20 01:50:38;;;;;;;11.95;10.6;;;;;;;12.06;100;93819.26;;;;
2019/05/20 01:51:39;;;;;;;11.95;10.6;;;;;;;12.06;100;93819.26;;;;
2019/05/20 01:52:40;;;;;;;11.95;10.6;;;;;;;12.06;100;93819.26;;;;
2019/05/20 01:53:41;;;;;;;11.95;10.6;;;;;;;12.06;100;93819.26;;;;
2019/05/20 01:54:42;;;;;;;11.95;10.6;;;;;;;12.06;100;93819.26;;;;
2019/05/20 01:55:43;;;;;;;11.95;10.6;;;;;;;12.06;100;93819.26;;;;
2019/05/20 01:56:45;;;;;;;11.95;10.6;;;;;;;12.06;100;93819.26;;;;
2019/05/20 01:57:46;;;;;;;11.95;10.6;;;;;;;12.06;100;93819.26;;;;
2019/05/20 01:58:47;;;;;;;11.95;10.6;;;;;;;12.06;100;93819.26;;;;
2019/05/20 01:59:48;;;;;;;11.95;10.6;;;;;;;12.06;100;93819.26;;;;
2019/05/20 02:00:49;;;;;;;11.95;10.6;;;;;;;12.06;100;93819.26;;;;
2019/05/20 02:01:50;;;;;;;11.95;10.6;;;;;;;12.06;100;93819.26;;;;
2019/05/20 02:02:51;;;;;;;11.95;10.6;;;;;;;12.06;100;93819.26;;;;
2019/05/20 02:03:52;;;;;;;11.95;10.6;;;;;;;12.06;100;93819.26;;;;
2019/05/20 02:04:53;;;;;;;11.95;10.6;;;;;;;12.06;100;93819.26;;;;
2019/05/20 02:05:54;;;;;;;11.95;10.6;;;;;;;12.06;100;93819.26;;;;
2019/05/20 02:06:56;;;;;;;11.95;10.6;;;;;;;12.06;100;93819.26;;;;
2019/05/20 02:07:57;;;;;;;12.15;10.85;;;;;;;11.99;100;93810.53;;;;
2019/05/20 02:08:58;;;;;;;12.15;10.85;;;;;;;11.99;100;93810.53;;;;
2019/05/20 02:09:59;;;;;;;12.15;10.85;;;;;;;11.99;100;93810.53;;;;
2019/05/20 02:11:00;;;;;;;12.15;10.85;;;;;;;11.99;100;93810.53;;;;
2019/05/20 02:12:01;;;;;;;12.15;10.85;;;;;;;11.99;100;93810.53;;;;
2019/05/20 02:13:02;;;;;;;12.15;10.85;;;;;;;11.99;100;93810.53;;;;
2019/05/20 02:14:07;;;;;;;12.15;10.85;;;;;;;11.99;100;93810.53;;;;
2019/05/20 02:15:16;;;;;;;12.15;10.85;;;;;;;11.99;100;93810.53;;;;
2019/05/20 02:16:18;;;;;;;12.15;10.85;;;;;;;11.99;100;93810.53;;;;
2019/05/20 02:17:19;;;;;;;12.15;10.85;;;;;;;11.99;100;93810.53;;;;
2019/05/20 02:18:20;;;;;;;14.65;12.15;;;;;;;11.93;100;93800;;;;
2019/05/20 02:19:21;;;;;;;14.65;12.15;;;;;;;11.93;100;93800;;;;
2019/05/20 02:20:22;;;;;;;14.65;12.15;;;;;;;11.93;100;93800;;;;
2019/05/20 02:21:23;;;;;;;14.65;12.15;;;;;;;11.93;100;93800;;;;
2019/05/20 02:22:24;;;;;;;14.65;12.15;;;;;;;11.93;100;93800;;;;
2019/05/20 02:23:26;;;;;;;14.65;12.15;;;;;;;11.93;100;93800;;;;
2019/05/20 02:24:27;;;;;;;14.65;12.15;;;;;;;11.93;100;93800;;;;
2019/05/20 02:25:28;;;;;;;14.65;12.15;;;;;;;11.93;100;93800;;;;
2019/05/20 02:26:29;;;;;;;14.65;12.15;;;;;;;11.93;100;93800;;;;
2019/05/20 02:27:30;;;;;;;14.65;12.15;;;;;;;11.93;100;93800;;;;
2019/05/20 02:28:31;;;;;;;14.45;12.9;;;;;;;11.94;100;93804.75;;;;
2019/05/20 02:29:32;;;;;;;14.45;12.9;;;;;;;11.94;100;93804.75;;;;
2019/05/20 02:30:33;;;;;;;14.45;12.9;;;;;;;11.94;100;93804.75;;;;
2019/05/20 02:31:34;;;;;;;14.45;12.9;;;;;;;11.94;100;93804.75;;;;
2019/05/20 02:32:36;;;;;;;14.45;12.9;;;;;;;11.94;100;93804.75;;;;
2019/05/20 02:33:37;;;;;;;14.45;12.9;;;;;;;11.94;100;93804.75;;;;
2019/05/20 02:34:38;;;;;;;14.45;12.9;;;;;;;11.94;100;93804.75;;;;
2019/05/20 02:35:39;;;;;;;14.45;12.9;;;;;;;11.94;100;93804.75;;;;
2019/05/20 02:36:40;;;;;;;14.45;12.9;;;;;;;11.94;100;93804.75;;;;
2019/05/20 02:37:41;;;;;;;14.45;12.9;;;;;;;11.94;100;93804.75;;;;
2019/05/20 02:38:43;;;;;;;14.45;12.9;;;;;;;11.94;100;93804.75;;;;
2019/05/20 02:39:44;;;;;;;17.6;15;;;;;;;11.9;100;93789.22;;;;
2019/05/20 02:40:45;;;;;;;17.6;15;;;;;;;11.9;100;93789.22;;;;
2019/05/20 02:41:46;;;;;;;17.6;15;;;;;;;11.9;100;93789.22;;;;
2019/05/20 02:42:47;;;;;;;17.6;15;;;;;;;11.9;100;93789.22;;;;
2019/05/20 02:43:48;;;;;;;17.6;15;;;;;;;11.9;100;93789.22;;;;
2019/05/20 02:44:49;;;;;;;17.6;15;;;;;;;11.9;100;93789.22;;;;
2019/05/20 02:45:50;;;;;;;17.6;15;;;;;;;11.9;100;93789.22;;;;
2019/05/20 02:46:51;;;;;;;17.6;15;;;;;;;11.9;100;93789.22;;;;
2019/05/20 02:47:52;;;;;;;17.6;15;;;;;;;11.9;100;93789.22;;;;
2019/05/20 02:48:54;;;;;;;17.6;15;;;;;;;11.9;100;93789.22;;;;
2019/05/20 02:49:55;;;;;;;17.9;15.5;;;;;;;11.95;100;93782.95;;;;
2019/05/20 02:50:56;;;;;;;17.9;15.5;;;;;;;11.95;100;93782.95;;;;
2019/05/20 02:51:57;;;;;;;17.9;15.5;;;;;;;11.95;100;93782.95;;;;
2019/05/20 02:52:58;;;;;;;17.9;15.5;;;;;;;11.95;100;93782.95;;;;
2019/05/20 02:53:59;;;;;;;17.9;15.5;;;;;;;11.95;100;93782.95;;;;
2019/05/20 02:55:00;;;;;;;17.9;15.5;;;;;;;11.95;100;93782.95;;;;
2019/05/20 02:56:02;;;;;;;17.9;15.5;;;;;;;11.95;100;93782.95;;;;
2019/05/20 02:57:03;;;;;;;17.9;15.5;;;;;;;11.95;100;93782.95;;;;
2019/05/20 02:58:04;;;;;;;17.9;15.5;;;;;;;11.95;100;93782.95;;;;
2019/05/20 02:59:05;;;;;;;17.9;15.5;;;;;;;11.95;100;93782.95;;;;
2019/05/20 03:00:06;;;;;;;17.9;15.5;;;;;;;11.95;100;93782.95;;;;
2019/05/20 03:01:08;;;;;;;18.9;16.2;;;;;;;11.94;100;93791.23;;;;
2019/05/20 03:02:09;;;;;;;18.9;16.2;;;;;;;11.94;100;93791.23;;;;
2019/05/20 03:03:10;;;;;;;18.9;16.2;;;;;;;11.94;100;93791.23;;;;
2019/05/20 03:04:11;;;;;;;18.9;16.2;;;;;;;11.94;100;93791.23;;;;
2019/05/20 03:05:12;;;;;;;18.9;16.2;;;;;;;11.94;100;93791.23;;;;
2019/05/20 03:06:13;;;;;;;18.9;16.2;;;;;;;11.94;100;93791.23;;;;
2019/05/20 03:07:14;;;;;;;18.9;16.2;;;;;;;11.94;100;93791.23;;;;
2019/05/20 03:08:15;;;;;;;18.9;16.2;;;;;;;11.94;100;93791.23;;;;
2019/05/20 03:09:16;;;;;;;18.9;16.2;;;;;;;11.94;100;93791.23;;;;
2019/05/20 03:10:17;;;;;;;18.9;16.2;;;;;;;11.94;100;93791.23;;;;
2019/05/20 03:11:18;;;;;;;21.95;19.05;;;;;;;12.02;100;93787.09;;;;
2019/05/20 03:12:19;;;;;;;21.95;19.05;;;;;;;12.02;100;93787.09;;;;
2019/05/20 03:13:20;;;;;;;21.95;19.05;;;;;;;12.02;100;93787.09;;;;
2019/05/20 03:14:21;;;;;;;21.95;19.05;;;;;;;12.02;100;93787.09;;;;
2019/05/20 03:15:22;;;;;;;21.95;19.05;;;;;;;12.02;100;93787.09;;;;
2019/05/20 03:16:24;;;;;;;21.95;19.05;;;;;;;12.02;100;93787.09;;;;
2019/05/20 03:17:25;;;;;;;21.95;19.05;;;;;;;12.02;100;93787.09;;;;
2019/05/20 03:18:26;;;;;;;21.95;19.05;;;;;;;12.02;100;93787.09;;;;
2019/05/20 03:19:27;;;;;;;21.95;19.05;;;;;;;12.02;100;93787.09;;;;
2019/05/20 03:20:28;;;;;;;21.95;19.05;;;;;;;12.02;100;93787.09;;;;
2019/05/20 03:21:29;;;;;;;28.1;22.55;;;;;;;12.03;100;93773.85;;;;
2019/05/20 03:22:30;;;;;;;28.1;22.55;;;;;;;12.03;100;93773.85;;;;
2019/05/20 03:23:31;;;;;;;28.1;22.55;;;;;;;12.03;100;93773.85;;;;
2019/05/20 03:24:32;;;;;;;28.1;22.55;;;;;;;12.03;100;93773.85;;;;
2019/05/20 03:25:33;;;;;;;28.1;22.55;;;;;;;12.03;100;93773.85;;;;
2019/05/20 03:26:34;;;;;;;28.1;22.55;;;;;;;12.03;100;93773.85;;;;
2019/05/20 03:27:35;;;;;;;28.1;22.55;;;;;;;12.03;100;93773.85;;;;
2019/05/20 03:28:36;;;;;;;28.1;22.55;;;;;;;12.03;100;93773.85;;;;
2019/05/20 03:29:37;;;;;;;28.1;22.55;;;;;;;12.03;100;93773.85;;;;
2019/05/20 03:30:38;;;;;;;28.1;22.55;;;;;;;12.03;100;93773.85;;;;
2019/05/20 03:31:40;;;;;;;28.1;22.55;;;;;;;12.03;100;93773.85;;;;
2019/05/20 03:32:41;;;;;;;29.4;23.8;;;;;;;12.11;100;93758.35;;;;
2019/05/20 03:33:42;;;;;;;29.4;23.8;;;;;;;12.11;100;93758.35;;;;
2019/05/20 03:34:43;;;;;;;29.4;23.8;;;;;;;12.11;100;93758.35;;;;
2019/05/20 03:35:44;;;;;;;29.4;23.8;;;;;;;12.11;100;93758.35;;;;
2019/05/20 03:36:45;;;;;;;29.4;23.8;;;;;;;12.11;100;93758.35;;;;
2019/05/20 03:37:46;;;;;;;29.4;23.8;;;;;;;12.11;100;93758.35;;;;
2019/05/20 03:38:47;;;;;;;29.4;23.8;;;;;;;12.11;100;93758.35;;;;
2019/05/20 03:39:48;;;;;;;29.4;23.8;;;;;;;12.11;100;93758.35;;;;
2019/05/20 03:40:49;;;;;;;29.4;23.8;;;;;;;12.11;100;93758.35;;;;
2019/05/20 03:41:50;;;;;;;29.4;23.8;;;;;;;12.11;100;93758.35;;;;
2019/05/20 03:42:51;;;;;;;29.4;23.8;;;;;;;12.11;100;93758.35;;;;
2019/05/20 03:43:52;;;;;;;29.4;23.8;;;;;;;12.11;100;93758.35;;;;
2019/05/20 03:44:53;;;;;;;29.4;23.8;;;;;;;12.11;100;93758.35;;;;
2019/05/20 03:45:55;;;;;;;29.4;23.8;;;;;;;12.11;100;93758.35;;;;
2019/05/20 03:46:56;;;;;;;29.4;23.8;;;;;;;12.11;100;93758.35;;;;
2019/05/20 03:47:57;;;;;;;29.4;23.8;;;;;;;12.11;100;93758.35;;;;
2019/05/20 03:48:58;;;;;;;29.4;23.8;;;;;;;12.11;100;93758.35;;;;
2019/05/20 03:49:59;;;;;;;29.4;23.8;;;;;;;12.11;100;93758.35;;;;
2019/05/20 03:51:00;;;;;;;29.4;23.8;;;;;;;12.11;100;93758.35;;;;
2019/05/20 03:52:01;;;;;;;29.4;23.8;;;;;;;12.11;100;93758.35;;;;
2019/05/20 03:53:02;;;;;;;29.4;23.8;;;;;;;12.11;100;93758.35;;;;
2019/05/20 03:54:03;;;;;;;31.8;25.95;;;;;;;12.18;100;93751.12;;;;
2019/05/20 03:55:04;;;;;;;31.8;25.95;;;;;;;12.18;100;93751.12;;;;
2019/05/20 03:56:05;;;;;;;31.8;25.95;;;;;;;12.18;100;93751.12;;;;
2019/05/20 03:57:06;;;;;;;31.8;25.95;;;;;;;12.18;100;93751.12;;;;
2019/05/20 03:58:07;;;;;;;31.8;25.95;;;;;;;12.18;100;93751.12;;;;
2019/05/20 03:59:08;;;;;;;31.8;25.95;;;;;;;12.18;100;93751.12;;;;
2019/05/20 04:00:10;;;;;;;31.8;25.95;;;;;;;12.18;100;93751.12;;;;
2019/05/20 04:01:11;;;;;;;31.8;25.95;;;;;;;12.18;100;93751.12;;;;
2019/05/20 04:02:12;;;;;;;31.8;25.95;;;;;;;12.18;100;93751.12;;;;
2019/05/20 04:03:13;;;;;;;31.8;25.95;;;;;;;12.18;100;93751.12;;;;
2019/05/20 04:04:14;;;;;;;31.95;25.05;;;;;;;12.2;100;93751.65;;;;
2019/05/20 04:05:15;;;;;;;31.95;25.05;;;;;;;12.2;100;93751.65;;;;
2019/05/20 04:06:16;;;;;;;31.95;25.05;;;;;;;12.2;100;93751.65;;;;
2019/05/20 04:07:17;;;;;;;31.95;25.05;;;;;;;12.2;100;93751.65;;;;
2019/05/20 04:08:19;;;;;;;31.95;25.05;;;;;;;12.2;100;93751.65;;;;
2019/05/20 04:09:20;;;;;;;31.95;25.05;;;;;;;12.2;100;93751.65;;;;
2019/05/20 04:10:21;;;;;;;31.95;25.05;;;;;;;12.2;100;93751.65;;;;
2019/05/20 04:11:22;;;;;;;31.95;25.05;;;;;;;12.2;100;93751.65;;;;
2019/05/20 04:12:23;;;;;;;31.95;25.05;;;;;;;12.2;100;93751.65;;;;
2019/05/20 04:13:24;;;;;;;31.95;25.05;;;;;;;12.2;100;93751.65;;;;
2019/05/20 04:14:25;;;;;;;32.5;26.35;;;;;;;12.26;100;93743.36;;;;
2019/05/20 04:15:26;;;;;;;32.5;26.35;;;;;;;12.26;100;93743.36;;;;
2019/05/20 04:16:27;;;;;;;32.5;26.35;;;;;;;12.26;100;93743.36;;;;
2019/05/20 04:17:28;;;;;;;32.5;26.35;;;;;;;12.26;100;93743.36;;;;
2019/05/20 04:18:29;;;;;;;32.5;26.35;;;;;;;12.26;100;93743.36;;;;
2019/05/20 04:19:30;;;;;;;32.5;26.35;;;;;;;12.26;100;93743.36;;;;
2019/05/20 04:20:31;;;;;;;32.5;26.35;;;;;;;12.26;100;93743.36;;;;
2019/05/20 04:21:32;;;;;;;32.5;26.35;;;;;;;12.26;100;93743.36;;;;
2019/05/20 04:22:34;;;;;;;32.5;26.35;;;;;;;12.26;100;93743.36;;;;
2019/05/20 04:23:35;;;;;;;32.5;26.35;;;;;;;12.26;100;93743.36;;;;
2019/05/20 04:24:36;;;;;;;32.5;26.35;;;;;;;12.26;100;93743.36;;;;
2019/05/20 04:25:37;;;;;;;37.1;26.95;;;;;;;12.2;100;93769.65;;;;
2019/05/20 04:26:38;;;;;;;37.1;26.95;;;;;;;12.2;100;93769.65;;;;
2019/05/20 04:27:39;;;;;;;37.1;26.95;;;;;;;12.2;100;93769.65;;;;
2019/05/20 04:28:40;;;;;;;37.1;26.95;;;;;;;12.2;100;93769.65;;;;
2019/05/20 04:29:41;;;;;;;37.1;26.95;;;;;;;12.2;100;93769.65;;;;
2019/05/20 04:30:42;;;;;;;37.1;26.95;;;;;;;12.2;100;93769.65;;;;
2019/05/20 04:31:43;;;;;;;37.1;26.95;;;;;;;12.2;100;93769.65;;;;
2019/05/20 04:32:44;;;;;;;37.1;26.95;;;;;;;12.2;100;93769.65;;;;
2019/05/20 04:33:45;;;;;;;37.1;26.95;;;;;;;12.2;100;93769.65;;;;
2019/05/20 04:34:46;;;;;;;37.1;26.95;;;;;;;12.2;100;93769.65;;;;
2019/05/20 04:35:47;;;;;;;36.9;26.25;;;;;;;12.19;100;93799.16;;;;
2019/05/20 04:36:48;;;;;;;36.9;26.25;;;;;;;12.19;100;93799.16;;;;
2019/05/20 04:37:49;;;;;;;36.9;26.25;;;;;;;12.19;100;93799.16;;;;
2019/05/20 04:38:56;;;;;;;36.9;26.25;;;;;;;12.19;100;93799.16;;;;
2019/05/20 04:39:57;;;;;;;36.9;26.25;;;;;;;12.19;100;93799.16;;;;
2019/05/20 04:40:58;;;;;;;36.9;26.25;;;;;;;12.19;100;93799.16;;;;
2019/05/20 04:41:59;;;;;;;36.9;26.25;;;;;;;12.19;100;93799.16;;;;
2019/05/20 04:43:00;;;;;;;36.9;26.25;;;;;;;12.19;100;93799.16;;;;
2019/05/20 04:44:01;;;;;;;36.9;26.25;;;;;;;12.19;100;93799.16;;;;
2019/05/20 04:45:02;;;;;;;36.9;26.25;;;;;;;12.19;100;93799.16;;;;
2019/05/20 04:46:03;;;;;;;36.9;26.25;;;;;;;12.19;100;93799.16;;;;
2019/05/20 04:47:04;;;;;;;27.85;19.65;;;;;;;12.14;100;93796.62;;;;
2019/05/20 04:48:06;;;;;;;27.85;19.65;;;;;;;12.14;100;93796.62;;;;
2019/05/20 04:49:07;;;;;;;27.85;19.65;;;;;;;12.14;100;93796.62;;;;
2019/05/20 04:50:08;;;;;;;27.85;19.65;;;;;;;12.14;100;93796.62;;;;
2019/05/20 04:51:09;;;;;;;27.85;19.65;;;;;;;12.14;100;93796.62;;;;
2019/05/20 04:52:10;;;;;;;27.85;19.65;;;;;;;12.14;100;93796.62;;;;
2019/05/20 04:53:11;;;;;;;27.85;19.65;;;;;;;12.14;100;93796.62;;;;
2019/05/20 04:54:12;;;;;;;27.85;19.65;;;;;;;12.14;100;93796.62;;;;
2019/05/20 04:55:13;;;;;;;27.85;19.65;;;;;;;12.14;100;93796.62;;;;
2019/05/20 04:56:14;;;;;;;27.85;19.65;;;;;;;12.14;100;93796.62;;;;
2019/05/20 04:57:15;;;;;;;14.05;9.649998;;;;;;;12.12;100;93785.28;;;;
2019/05/20 04:58:16;;;;;;;14.05;9.649998;;;;;;;12.12;100;93785.28;;;;
2019/05/20 04:59:17;;;;;;;14.05;9.649998;;;;;;;12.12;100;93785.28;;;;
2019/05/20 05:00:18;;;;;;;14.05;9.649998;;;;;;;12.12;100;93785.28;;;;
2019/05/20 05:01:58;;;;;;;14.05;9.649998;;;;;;;12.12;100;93785.28;;;;
2019/05/20 05:03:00;;;;;;;14.05;9.649998;;;;;;;12.12;100;93785.28;;;;
2019/05/20 05:04:01;;;;;;;14.05;9.649998;;;;;;;12.12;100;93785.28;;;;
2019/05/20 05:05:02;;;;;;;14.05;9.649998;;;;;;;12.12;100;93785.28;;;;
2019/05/20 05:06:03;;;;;;;14.05;9.649998;;;;;;;12.12;100;93785.28;;;;
2019/05/20 05:07:04;;;;;;;14.05;9.649998;;;;;;;12.12;100;93785.28;;;;
2019/05/20 05:08:05;;;;;;;29.05;20.6;;;;;;;12.08;100;93758.8;;;;
2019/05/20 05:09:06;;;;;;;29.05;20.6;;;;;;;12.08;100;93758.8;;;;
2019/05/20 05:10:07;;;;;;;29.05;20.6;;;;;;;12.08;100;93758.8;;;;
2019/05/20 05:11:09;;;;;;;29.05;20.6;;;;;;;12.08;100;93758.8;;;;
2019/05/20 05:12:10;;;;;;;29.05;20.6;;;;;;;12.08;100;93758.8;;;;
2019/05/20 05:13:11;;;;;;;29.05;20.6;;;;;;;12.08;100;93758.8;;;;
2019/05/20 05:14:12;;;;;;;29.05;20.6;;;;;;;12.08;100;93758.8;;;;
2019/05/20 05:15:13;;;;;;;29.05;20.6;;;;;;;12.08;100;93758.8;;;;
2019/05/20 05:16:14;;;;;;;29.05;20.6;;;;;;;12.08;100;93758.8;;;;
2019/05/20 05:17:15;;;;;;;29.05;20.6;;;;;;;12.08;100;93758.8;;;;
2019/05/20 05:18:16;;;;;;;29.05;20.6;;;;;;;12.08;100;93758.8;;;;
2019/05/20 05:19:17;;;;;;;29.05;20.6;;;;;;;12.08;100;93758.8;;;;
2019/05/20 05:20:18;;;;;;;29.05;20.6;;;;;;;12.08;100;93758.8;;;;
2019/05/20 05:21:19;;;;;;;29.05;20.6;;;;;;;12.08;100;93758.8;;;;
2019/05/20 05:22:20;;;;;;;29.05;20.6;;;;;;;12.08;100;93758.8;;;;
2019/05/20 05:23:21;;;;;;;29.05;20.6;;;;;;;12.08;100;93758.8;;;;
2019/05/20 05:24:22;;;;;;;29.05;20.6;;;;;;;12.08;100;93758.8;;;;
2019/05/20 05:25:24;;;;;;;29.05;20.6;;;;;;;12.08;100;93758.8;;;;
2019/05/20 05:26:25;;;;;;;29.05;20.6;;;;;;;12.08;100;93758.8;;;;
2019/05/20 05:27:26;;;;;;;29.05;20.6;;;;;;;12.08;100;93758.8;;;;
2019/05/20 05:28:27;;;;;;;12;8.450001;;;;;;;12.18;100;93754.4;;;;
2019/05/20 05:29:28;;;;;;;12;8.450001;;;;;;;12.18;100;93754.4;;;;
2019/05/20 05:30:29;;;;;;;12;8.450001;;;;;;;12.18;100;93754.4;;;;
2019/05/20 05:31:30;;;;;;;12;8.450001;;;;;;;12.18;100;93754.4;;;;
2019/05/20 05:32:46;;;;;;;12;8.450001;;;;;;;12.18;100;93754.4;;;;
2019/05/20 05:33:47;;;;;;;12;8.450001;;;;;;;12.18;100;93754.4;;;;
2019/05/20 05:34:49;;;;;;;12;8.450001;;;;;;;12.18;100;93754.4;;;;
2019/05/20 05:35:50;;;;;;;12;8.450001;;;;;;;12.18;100;93754.4;;;;
2019/05/20 05:36:51;;;;;;;12;8.450001;;;;;;;12.18;100;93754.4;;;;
2019/05/20 05:37:52;;;;;;;12;8.450001;;;;;;;12.18;100;93754.4;;;;
2019/05/20 05:38:53;;;;;;;12;8.450001;;;;;;;12.18;100;93754.4;;;;
2019/05/20 05:39:54;;;;;;;17.8;13.8;;;;;;;12.22;100;93757.19;;;;
2019/05/20 05:40:55;;;;;;;17.8;13.8;;;;;;;12.22;100;93757.19;;;;
2019/05/20 05:41:56;;;;;;;17.8;13.8;;;;;;;12.22;100;93757.19;;;;
2019/05/20 05:42:57;;;;;;;17.8;13.8;;;;;;;12.22;100;93757.19;;;;
2019/05/20 05:43:58;;;;;;;17.8;13.8;;;;;;;12.22;100;93757.19;;;;
2019/05/20 05:44:59;;;;;;;17.8;13.8;;;;;;;12.22;100;93757.19;;;;
2019/05/20 05:46:00;;;;;;;17.8;13.8;;;;;;;12.22;100;93757.19;;;;
2019/05/20 05:47:01;;;;;;;17.8;13.8;;;;;;;12.22;100;93757.19;;;;
2019/05/20 05:48:02;;;;;;;17.8;13.8;;;;;;;12.22;100;93757.19;;;;
2019/05/20 05:49:03;;;;;;;17.8;13.8;;;;;;;12.22;100;93757.19;;;;
2019/05/20 05:50:04;;;;;;;27.15;19.9;;;;;;;12.2;100;93766.94;;;;
2019/05/20 05:51:06;;;;;;;27.15;19.9;;;;;;;12.2;100;93766.94;;;;
2019/05/20 05:52:07;;;;;;;27.15;19.9;;;;;;;12.2;100;93766.94;;;;
2019/05/20 05:53:08;;;;;;;27.15;19.9;;;;;;;12.2;100;93766.94;;;;
2019/05/20 05:54:09;;;;;;;27.15;19.9;;;;;;;12.2;100;93766.94;;;;
2019/05/20 05:55:10;;;;;;;27.15;19.9;;;;;;;12.2;100;93766.94;;;;
2019/05/20 05:56:11;;;;;;;27.15;19.9;;;;;;;12.2;100;93766.94;;;;
2019/05/20 05:57:12;;;;;;;27.15;19.9;;;;;;;12.2;100;93766.94;;;;
2019/05/20 05:58:13;;;;;;;27.15;19.9;;;;;;;12.2;100;93766.94;;;;
2019/05/20 05:59:14;;;;;;;27.15;19.9;;;;;;;12.2;100;93766.94;;;;
2019/05/20 06:00:15;;;;;;;34.3;22.4;;;;;;;12.27;100;93747.13;;;;
2019/05/20 06:01:16;;;;;;;34.3;22.4;;;;;;;12.27;100;93747.13;;;;
2019/05/20 06:02:17;;;;;;;34.3;22.4;;;;;;;12.27;100;93747.13;;;;
2019/05/20 06:03:19;;;;;;;34.3;22.4;;;;;;;12.27;100;93747.13;;;;
2019/05/20 06:04:20;;;;;;;34.3;22.4;;;;;;;12.27;100;93747.13;;;;
2019/05/20 06:05:21;;;;;;;34.3;22.4;;;;;;;12.27;100;93747.13;;;;